Time;durP1;ratioP1;P1;durP2;ratioP2;P2;SDS_P1;SDS_P2;PMS_P1;PMS_P2;Temp;Humidity;BMP_temperature;BMP_pressure;BME280_temperature;BME280_humidity;BME280_pressure;Samples;Min_cycle;Max_cycle;Signal;HPM_P1;HPM_P2
2021/11/08 00:01:00;;;;;;;10.27;5.53;;;;;;;;;;4918850;29;20472;-73
2021/11/08 00:03:31;;;;;;;11.65;5.13;;;;;;;;;;4919060;29;20110;-73
2021/11/08 00:06:00;;;;;;;12.65;5.20;;;;;;;;;;4920834;29;20053;-73
2021/11/08 00:08:27;;;;;;;11.40;5.43;;;;;;;;;;4922376;29;20610;-73
2021/11/08 00:10:54;;;;;;;9.57;4.82;;;;;;;;;;4917836;29;20042;-73
2021/11/08 00:13:21;;;;;;;10.65;4.78;;;;;;;;;;4922120;29;20130;-74
2021/11/08 00:18:34;;;;;;;8.95;4.53;;;;;;;;;;4924956;29;20059;-74
2021/11/08 00:21:00;;;;;;;7.30;3.70;;;;;;;;;;4924372;29;20210;-74
2021/11/08 00:23:27;;;;;;;11.10;4.78;;;;;;;;;;4924000;29;20461;-73
2021/11/08 00:25:54;;;;;;;9.23;3.20;;;;;;;;;;4920279;29;20056;-73
2021/11/08 00:28:21;;;;;;;6.63;3.05;;;;;;;;;;4922632;29;20020;-75
2021/11/08 00:30:48;;;;;;;7.40;3.78;;;;;;;;;;4923230;29;20401;-74
2021/11/08 00:33:15;;;;;;;10.50;5.72;;;;;;;;;;4923121;29;20031;-75
2021/11/08 00:35:46;;;;;;;13.30;6.53;;;;;;;;;;4922015;29;20032;-73
2021/11/08 00:38:13;;;;;;;9.35;5.40;;;;;;;;;;4923788;29;20083;-75
2021/11/08 00:40:40;;;;;;;8.43;4.75;;;;;;;;;;4922493;29;20802;-75
2021/11/08 00:43:07;;;;;;;11.57;4.75;;;;;;;;;;4925761;29;20099;-74
2021/11/08 00:45:34;;;;;;;9.75;5.03;;;;;;;;;;4919033;29;20050;-73
2021/11/08 00:48:00;;;;;;;13.68;5.95;;;;;;;;;;4923700;29;20039;-73
2021/11/08 00:50:27;;;;;;;12.18;6.43;;;;;;;;;;4929354;29;20031;-74
2021/11/08 00:52:54;;;;;;;15.18;5.30;;;;;;;;;;4924479;29;20571;-74
2021/11/08 00:55:22;;;;;;;8.40;4.80;;;;;;;;;;4922594;29;20038;-75
2021/11/08 00:57:50;;;;;;;6.25;4.20;;;;;;;;;;4926362;29;20067;-74
2021/11/08 01:00:18;;;;;;;9.23;4.18;;;;;;;;;;4922948;29;20091;-74
2021/11/08 01:02:45;;;;;;;7.45;3.85;;;;;;;;;;4919670;29;20087;-73
2021/11/08 01:05:13;;;;;;;6.43;3.92;;;;;;;;;;4920639;29;20114;-74
2021/11/08 01:07:40;;;;;;;5.40;3.83;;;;;;;;;;4924724;29;20448;-73
2021/11/08 01:10:11;;;;;;;8.60;3.50;;;;;;;;;;4919936;29;20039;-73
2021/11/08 01:12:37;;;;;;;3.88;2.63;;;;;;;;;;4920830;29;20232;-75
2021/11/08 01:15:05;;;;;;;3.97;2.95;;;;;;;;;;4924411;29;20019;-73
2021/11/08 01:17:31;;;;;;;5.00;3.17;;;;;;;;;;4925029;29;20114;-73
2021/11/08 01:19:57;;;;;;;3.92;2.63;;;;;;;;;;4922844;29;20019;-73
2021/11/08 01:22:23;;;;;;;7.43;3.38;;;;;;;;;;4924895;29;20032;-72
2021/11/08 01:24:53;;;;;;;6.97;3.10;;;;;;;;;;4919146;29;20033;-72
2021/11/08 01:27:38;;;;;;;8.07;3.65;;;;;;;;;;4918775;29;20055;-74
2021/11/08 01:30:15;;;;;;;11.40;4.43;;;;;;;;;;4921667;29;20055;-74
2021/11/08 01:32:52;;;;;;;13.68;5.07;;;;;;;;;;4922406;29;20067;-73
2021/11/08 01:35:25;;;;;;;11.27;5.00;;;;;;;;;;4922704;29;20024;-74
2021/11/08 01:38:01;;;;;;;7.60;4.10;;;;;;;;;;4921821;29;20024;-72
2021/11/08 01:40:28;;;;;;;10.50;4.93;;;;;;;;;;4921660;29;20119;-72
2021/11/08 01:42:55;;;;;;;9.20;4.55;;;;;;;;;;4920974;29;20634;-72
2021/11/08 01:45:21;;;;;;;14.00;5.68;;;;;;;;;;4923457;29;20444;-73
2021/11/08 01:47:47;;;;;;;13.73;5.35;;;;;;;;;;4919337;29;20086;-73
2021/11/08 01:50:14;;;;;;;15.15;5.30;;;;;;;;;;4921402;29;20024;-74
2021/11/08 01:52:40;;;;;;;13.75;5.22;;;;;;;;;;4938063;29;20737;-73
2021/11/08 01:55:06;;;;;;;15.50;4.95;;;;;;;;;;4920888;29;20473;-73
2021/11/08 01:57:33;;;;;;;11.40;5.68;;;;;;;;;;4922725;29;20063;-73
2021/11/08 02:00:00;;;;;;;16.52;5.43;;;;;;;;;;4923424;29;20114;-72
2021/11/08 02:02:26;;;;;;;9.93;5.13;;;;;;;;;;4924421;29;20465;-72
2021/11/08 02:04:53;;;;;;;13.55;4.93;;;;;;;;;;4923923;29;20074;-72
2021/11/08 02:07:19;;;;;;;9.23;5.35;;;;;;;;;;4922909;29;20032;-74
2021/11/08 02:09:45;;;;;;;12.30;4.43;;;;;;;;;;4922187;29;20485;-73
2021/11/08 02:12:12;;;;;;;17.40;6.18;;;;;;;;;;4922414;29;20043;-72
2021/11/08 02:14:40;;;;;;;12.23;5.05;;;;;;;;;;4921123;29;20035;-74
2021/11/08 02:17:06;;;;;;;9.95;5.38;;;;;;;;;;4923796;29;20031;-75
2021/11/08 02:19:33;;;;;;;13.27;5.03;;;;;;;;;;4922020;29;20452;-74
2021/11/08 02:22:01;;;;;;;11.30;5.45;;;;;;;;;;4920690;29;20040;-73
2021/11/08 02:24:28;;;;;;;11.98;5.55;;;;;;;;;;4917980;29;20024;-74
2021/11/08 02:26:55;;;;;;;13.73;5.65;;;;;;;;;;4924028;29;20040;-72
2021/11/08 02:29:21;;;;;;;13.85;4.95;;;;;;;;;;4924111;29;20034;-72
2021/11/08 02:31:47;;;;;;;11.15;5.13;;;;;;;;;;4924246;29;20453;-73
2021/11/08 02:34:14;;;;;;;14.02;5.53;;;;;;;;;;4918760;29;20106;-74
2021/11/08 02:36:43;;;;;;;13.52;5.00;;;;;;;;;;4922421;29;20508;-73
2021/11/08 02:39:25;;;;;;;13.57;5.65;;;;;;;;;;4921145;29;20043;-73
2021/11/08 02:41:51;;;;;;;16.02;5.68;;;;;;;;;;4922273;29;20023;-72
2021/11/08 02:44:18;;;;;;;16.02;6.20;;;;;;;;;;4919239;29;20040;-73
2021/11/08 02:46:44;;;;;;;12.52;5.45;;;;;;;;;;4921763;29;20028;-72
2021/11/08 02:49:13;;;;;;;13.55;5.35;;;;;;;;;;4921093;29;20031;-73
2021/11/08 02:51:45;;;;;;;10.82;4.78;;;;;;;;;;4922469;29;20020;-72
2021/11/08 02:54:26;;;;;;;13.52;6.00;;;;;;;;;;4924455;29;20533;-72
2021/11/08 02:56:53;;;;;;;13.90;5.30;;;;;;;;;;4923351;29;20071;-73
2021/11/08 02:59:20;;;;;;;12.60;5.75;;;;;;;;;;4923028;29;20028;-72
2021/11/08 03:01:48;;;;;;;17.02;6.53;;;;;;;;;;4925030;29;20035;-74
2021/11/08 03:04:19;;;;;;;14.30;5.47;;;;;;;;;;4919145;29;20111;-72
2021/11/08 03:06:46;;;;;;;16.65;5.75;;;;;;;;;;4920913;29;20036;-73
2021/11/08 03:09:20;;;;;;;14.48;5.15;;;;;;;;;;4922433;29;20036;-72
2021/11/08 03:11:48;;;;;;;13.63;5.20;;;;;;;;;;4923055;29;20087;-73
2021/11/08 03:14:17;;;;;;;10.40;5.50;;;;;;;;;;4924010;29;20448;-72
2021/11/08 03:16:49;;;;;;;12.73;5.25;;;;;;;;;;4921220;29;20441;-73
2021/11/08 03:19:24;;;;;;;12.10;5.47;;;;;;;;;;4925691;29;20030;-75
2021/11/08 03:21:52;;;;;;;8.93;4.80;;;;;;;;;;4924483;29;20028;-76
2021/11/08 03:24:24;;;;;;;9.32;5.00;;;;;;;;;;4921286;29;20515;-76
2021/11/08 03:26:54;;;;;;;12.10;4.88;;;;;;;;;;4925897;29;20925;-74
2021/11/08 03:29:20;;;;;;;7.63;5.20;;;;;;;;;;4922472;29;20376;-76
2021/11/08 03:31:49;;;;;;;8.27;4.53;;;;;;;;;;4926906;29;20027;-77
2021/11/08 03:34:17;;;;;;;9.43;4.30;;;;;;;;;;4925655;29;20128;-76
2021/11/08 03:36:43;;;;;;;11.48;5.20;;;;;;;;;;4919868;29;20047;-76
2021/11/08 03:39:12;;;;;;;12.13;5.40;;;;;;;;;;4923571;29;20028;-76
2021/11/08 03:41:39;;;;;;;17.30;4.57;;;;;;;;;;4923568;29;20028;-76
2021/11/08 03:44:05;;;;;;;9.57;4.85;;;;;;;;;;4922691;29;20028;-76
2021/11/08 03:46:31;;;;;;;9.70;4.95;;;;;;;;;;4921662;29;20063;-76
2021/11/08 03:48:57;;;;;;;8.77;4.25;;;;;;;;;;4918729;29;20024;-76
2021/11/08 03:51:23;;;;;;;13.20;5.40;;;;;;;;;;4923488;29;20092;-76
2021/11/08 03:53:50;;;;;;;12.63;5.65;;;;;;;;;;4919401;29;20035;-75
2021/11/08 03:56:16;;;;;;;13.35;5.15;;;;;;;;;;4918898;29;20038;-77
2021/11/08 03:58:42;;;;;;;8.38;5.00;;;;;;;;;;4918751;29;20038;-76
2021/11/08 04:01:08;;;;;;;11.20;5.07;;;;;;;;;;4920768;29;20028;-75
2021/11/08 04:03:35;;;;;;;10.25;4.82;;;;;;;;;;4915036;29;20070;-74
2021/11/08 04:06:02;;;;;;;9.20;5.43;;;;;;;;;;4921408;29;20035;-73
2021/11/08 04:08:28;;;;;;;11.80;5.05;;;;;;;;;;4915607;29;20024;-73
2021/11/08 04:10:55;;;;;;;12.13;4.65;;;;;;;;;;4918217;29;20175;-76
2021/11/08 04:13:29;;;;;;;10.25;5.03;;;;;;;;;;4915727;29;20534;-73
2021/11/08 04:15:56;;;;;;;14.38;5.30;;;;;;;;;;4916355;29;20031;-73
2021/11/08 04:18:26;;;;;;;7.88;5.03;;;;;;;;;;4917284;29;20028;-75
2021/11/08 04:20:53;;;;;;;11.48;4.93;;;;;;;;;;4915268;29;20179;-73
2021/11/08 04:23:21;;;;;;;13.18;5.10;;;;;;;;;;4917423;29;20039;-77
2021/11/08 04:25:47;;;;;;;11.65;4.45;;;;;;;;;;4914951;29;20028;-76
2021/11/08 04:28:13;;;;;;;8.40;3.55;;;;;;;;;;4917408;29;20567;-73
2021/11/08 04:30:44;;;;;;;11.13;4.00;;;;;;;;;;4916098;29;20048;-75
2021/11/08 04:43:56;;;;;;;7.75;2.85;;;;;;;;;;4917281;29;20047;-73
2021/11/08 04:54:41;;;;;;;13.02;3.60;;;;;;;;;;4913639;29;20092;-73
2021/11/08 05:31:56;;;;;;;8.60;3.08;;;;;;;;;;4912244;29;20048;-73
2021/11/08 05:34:22;;;;;;;11.80;3.75;;;;;;;;;;4919024;29;20082;-73
2021/11/08 05:36:48;;;;;;;10.32;3.28;;;;;;;;;;4912309;29;20028;-74
2021/11/08 05:39:15;;;;;;;9.40;3.13;;;;;;;;;;4912408;29;20035;-73
2021/11/08 05:41:42;;;;;;;9.70;3.13;;;;;;;;;;4916185;29;20060;-72
2021/11/08 05:44:09;;;;;;;8.73;3.70;;;;;;;;;;4916644;29;20035;-73
2021/11/08 05:46:35;;;;;;;13.73;3.60;;;;;;;;;;4912255;29;20079;-73
2021/11/08 05:49:02;;;;;;;12.88;4.53;;;;;;;;;;4913106;29;20136;-73
2021/11/08 05:51:29;;;;;;;9.90;3.53;;;;;;;;;;4908842;29;20035;-72
2021/11/08 05:53:55;;;;;;;9.73;3.22;;;;;;;;;;4915030;29;20114;-73
2021/11/08 05:56:37;;;;;;;9.85;3.55;;;;;;;;;;4912041;29;20075;-72
2021/11/08 06:47:33;;;;;;;10.15;3.63;;;;;;;;;;4912165;29;20039;-73
2021/11/08 06:51:23;;;;;;;11.73;4.00;;;;;;;;;;4893473;29;20477;-73
2021/11/08 06:53:54;;;;;;;13.00;4.53;;;;;;;;;;4915259;29;20031;-73
2021/11/08 06:56:26;;;;;;;9.13;3.90;;;;;;;;;;4908933;29;20068;-72
2021/11/08 06:58:52;;;;;;;;;;;;;;;;;;4914023;29;20043;-72
2021/11/08 07:01:18;;;;;;;13.90;4.20;;;;;;;;;;4915236;29;20127;-72
2021/11/08 07:03:44;;;;;;;14.82;4.53;;;;;;;;;;4911430;29;20436;-72
2021/11/08 07:06:10;;;;;;;14.07;4.55;;;;;;;;;;4911443;29;20111;-73
2021/11/08 07:08:36;;;;;;;18.88;4.53;;;;;;;;;;4914676;29;20028;-72
2021/11/08 07:11:03;;;;;;;13.32;4.57;;;;;;;;;;4913295;29;20051;-72
2021/11/08 07:13:29;;;;;;;11.38;4.47;;;;;;;;;;4913222;29;20060;-73
2021/11/08 07:15:55;;;;;;;17.58;5.05;;;;;;;;;;4912144;29;20087;-72
2021/11/08 07:18:21;;;;;;;10.88;4.78;;;;;;;;;;4913022;29;20042;-72
2021/11/08 07:20:49;;;;;;;12.25;4.45;;;;;;;;;;4914578;29;20028;-72
2021/11/08 07:23:15;;;;;;;14.77;5.05;;;;;;;;;;4911605;29;20020;-72
2021/11/08 07:25:41;;;;;;;13.73;4.63;;;;;;;;;;4912118;29;20526;-73
2021/11/08 07:28:13;;;;;;;12.73;5.00;;;;;;;;;;4912682;29;20051;-76
2021/11/08 07:30:43;;;;;;;9.93;5.05;;;;;;;;;;4916961;29;20094;-76
2021/11/08 07:33:09;;;;;;;9.43;4.15;;;;;;;;;;4910455;29;20028;-72
2021/11/08 07:35:35;;;;;;;13.80;4.35;;;;;;;;;;4913364;29;20036;-72
2021/11/08 07:38:01;;;;;;;12.32;4.32;;;;;;;;;;4917167;29;20024;-73
2021/11/08 07:40:27;;;;;;;13.63;4.45;;;;;;;;;;4923625;29;20027;-72
2021/11/08 07:42:54;;;;;;;20.38;4.72;;;;;;;;;;4937363;29;20050;-73
2021/11/08 07:45:21;;;;;;;18.35;4.65;;;;;;;;;;4925124;29;20106;-72
2021/11/08 07:47:47;;;;;;;13.07;5.32;;;;;;;;;;4924534;29;20028;-72
2021/11/08 07:50:13;;;;;;;16.35;4.53;;;;;;;;;;4923726;29;20490;-73
2021/11/08 07:52:39;;;;;;;15.02;5.55;;;;;;;;;;4924725;29;20222;-72
2021/11/08 07:55:06;;;;;;;15.18;5.78;;;;;;;;;;4924590;29;20070;-72
2021/11/08 07:57:32;;;;;;;15.15;6.18;;;;;;;;;;4924717;29;20040;-72
2021/11/08 07:59:58;;;;;;;14.27;5.10;;;;;;;;;;4924397;29;20107;-73
2021/11/08 08:02:25;;;;;;;15.48;6.28;;;;;;;;;;4923509;29;20042;-72
2021/11/08 08:04:51;;;;;;;11.88;6.47;;;;;;;;;;4925049;29;20059;-72
2021/11/08 08:07:17;;;;;;;17.95;6.22;;;;;;;;;;4923331;29;20474;-72
2021/11/08 08:09:43;;;;;;;17.35;8.20;;;;;;;;;;4936351;29;20560;-72
2021/11/08 08:12:09;;;;;;;29.25;17.73;;;;;;;;;;4924407;29;20056;-72
2021/11/08 08:14:36;;;;;;;21.05;13.70;;;;;;;;;;4922943;29;20123;-72
2021/11/08 08:17:03;;;;;;;19.77;11.02;;;;;;;;;;4921279;29;20030;-73
2021/11/08 08:19:30;;;;;;;13.27;6.97;;;;;;;;;;4922187;29;20034;-73
2021/11/08 08:21:56;;;;;;;16.38;7.45;;;;;;;;;;4916932;29;20043;-73
2021/11/08 08:24:22;;;;;;;13.98;5.53;;;;;;;;;;4921982;29;20199;-73
2021/11/08 08:26:49;;;;;;;19.30;5.45;;;;;;;;;;4925094;29;20043;-73
2021/11/08 08:29:15;;;;;;;11.93;5.25;;;;;;;;;;4917223;29;20035;-73
2021/11/08 08:31:45;;;;;;;12.27;5.78;;;;;;;;;;4918302;29;20068;-73
2021/11/08 08:34:11;;;;;;;16.17;5.50;;;;;;;;;;4919546;29;20358;-73
2021/11/08 08:36:38;;;;;;;10.32;5.40;;;;;;;;;;4925532;29;20035;-73
2021/11/08 08:39:05;;;;;;;14.48;5.78;;;;;;;;;;4922578;29;20027;-74
2021/11/08 08:41:31;;;;;;;14.57;6.50;;;;;;;;;;4915904;29;20027;-75
2021/11/08 08:43:57;;;;;;;17.25;6.28;;;;;;;;;;4914667;29;20028;-73
2021/11/08 08:46:24;;;;;;;15.40;6.55;;;;;;;;;;4919185;29;20469;-73
2021/11/08 08:48:50;;;;;;;16.85;5.90;;;;;;;;;;4914138;29;20042;-74
2021/11/08 08:51:17;;;;;;;21.63;4.72;;;;;;;;;;4915404;29;20360;-74
2021/11/08 08:53:44;;;;;;;14.18;4.10;;;;;;;;;;4916084;29;20365;-74
2021/11/08 08:56:10;;;;;;;11.93;3.55;;;;;;;;;;4916035;29;20035;-73
2021/11/08 08:58:38;;;;;;;11.18;3.70;;;;;;;;;;4918510;29;20024;-73
2021/11/08 09:01:05;;;;;;;16.45;4.32;;;;;;;;;;4909561;29;20601;-74
2021/11/08 09:03:31;;;;;;;10.02;3.70;;;;;;;;;;4915311;29;20654;-74
2021/11/08 09:05:57;;;;;;;10.50;3.85;;;;;;;;;;4916769;29;20106;-74
2021/11/08 09:08:23;;;;;;;10.90;3.70;;;;;;;;;;4917048;29;20042;-73
2021/11/08 09:10:50;;;;;;;13.70;3.33;;;;;;;;;;4917914;29;20028;-73
2021/11/08 09:13:17;;;;;;;11.80;4.30;;;;;;;;;;4918261;29;20086;-73
2021/11/08 09:15:43;;;;;;;12.98;3.50;;;;;;;;;;4918349;29;20066;-73
2021/11/08 09:18:10;;;;;;;11.07;3.85;;;;;;;;;;4914934;29;20118;-74
2021/11/08 09:20:38;;;;;;;13.45;3.13;;;;;;;;;;4916164;29;20535;-73
2021/11/08 09:23:05;;;;;;;7.80;3.10;;;;;;;;;;4914896;29;20023;-73
2021/11/08 09:25:31;;;;;;;13.65;3.03;;;;;;;;;;4915169;29;20059;-73
2021/11/08 09:27:59;;;;;;;8.57;2.50;;;;;;;;;;4917865;29;20035;-74
2021/11/08 09:30:26;;;;;;;8.18;2.88;;;;;;;;;;4917106;29;20395;-74
2021/11/08 09:32:53;;;;;;;13.98;3.97;;;;;;;;;;4915867;29;20098;-73
2021/11/08 09:35:19;;;;;;;11.23;3.95;;;;;;;;;;4918171;29;20468;-73
2021/11/08 09:37:48;;;;;;;11.13;3.65;;;;;;;;;;4917317;29;20039;-73
2021/11/08 09:40:24;;;;;;;6.95;3.50;;;;;;;;;;4912717;29;20028;-75
2021/11/08 09:42:52;;;;;;;9.18;3.35;;;;;;;;;;4922884;29;20023;-74
2021/11/08 09:45:19;;;;;;;13.07;3.63;;;;;;;;;;4924539;29;20114;-74
2021/11/08 09:47:47;;;;;;;9.15;3.30;;;;;;;;;;4924497;29;20038;-73
2021/11/08 09:50:14;;;;;;;7.38;3.28;;;;;;;;;;4922821;29;20023;-74
2021/11/08 09:52:42;;;;;;;7.78;3.45;;;;;;;;;;4923247;29;20030;-73
2021/11/08 09:55:11;;;;;;;13.20;4.07;;;;;;;;;;4924494;29;20036;-74
2021/11/08 09:57:37;;;;;;;12.07;3.85;;;;;;;;;;4924642;29;20035;-73
2021/11/08 10:00:14;;;;;;;17.83;4.13;;;;;;;;;;4925203;29;20023;-74
2021/11/08 10:02:41;;;;;;;11.98;4.00;;;;;;;;;;4922538;29;20024;-73
2021/11/08 10:05:07;;;;;;;11.68;4.55;;;;;;;;;;4924720;29;20047;-74
2021/11/08 10:07:34;;;;;;;13.38;4.78;;;;;;;;;;4922790;29;20347;-73
2021/11/08 10:10:00;;;;;;;14.00;4.38;;;;;;;;;;4934842;29;20024;-74
2021/11/08 10:12:26;;;;;;;11.15;4.00;;;;;;;;;;4923931;29;20598;-74
2021/11/08 10:14:52;;;;;;;10.85;4.88;;;;;;;;;;4923557;29;20460;-73
2021/11/08 10:17:19;;;;;;;12.35;4.05;;;;;;;;;;4924807;29;20684;-73
2021/11/08 10:19:45;;;;;;;10.27;4.85;;;;;;;;;;4922185;29;20059;-73
2021/11/08 10:22:12;;;;;;;13.93;4.50;;;;;;;;;;4922583;29;20028;-71
2021/11/08 10:24:39;;;;;;;11.48;4.32;;;;;;;;;;4924139;29;20528;-72
2021/11/08 10:27:08;;;;;;;14.35;4.88;;;;;;;;;;4913353;29;20036;-72
2021/11/08 10:29:34;;;;;;;11.98;5.00;;;;;;;;;;4918341;29;20117;-72
2021/11/08 10:32:06;;;;;;;13.68;4.50;;;;;;;;;;4916458;29;20099;-72
2021/11/08 10:34:32;;;;;;;12.60;4.18;;;;;;;;;;4922758;29;20035;-71
2021/11/08 10:37:06;;;;;;;8.93;4.30;;;;;;;;;;4915080;29;20019;-71
2021/11/08 10:39:40;;;;;;;11.18;4.18;;;;;;;;;;4919249;29;20838;-71
2021/11/08 10:42:06;;;;;;;11.20;4.93;;;;;;;;;;4913588;29;20213;-71
2021/11/08 10:44:33;;;;;;;10.10;4.05;;;;;;;;;;4917316;29;20043;-71
2021/11/08 10:47:01;;;;;;;11.68;5.20;;;;;;;;;;4911951;29;20063;-71
2021/11/08 10:49:29;;;;;;;11.18;5.15;;;;;;;;;;4916214;29;20027;-72
2021/11/08 10:51:57;;;;;;;12.52;4.97;;;;;;;;;;4918797;29;20053;-72
2021/11/08 10:54:29;;;;;;;15.38;5.88;;;;;;;;;;4921158;29;20110;-71
2021/11/08 10:57:06;;;;;;;23.30;5.82;;;;;;;;;;4911202;29;20501;-71
2021/11/08 10:59:37;;;;;;;15.45;5.40;;;;;;;;;;4918838;29;20019;-72
2021/11/08 11:02:08;;;;;;;15.27;5.40;;;;;;;;;;4920538;29;20031;-73
2021/11/08 11:04:45;;;;;;;12.73;4.53;;;;;;;;;;4922798;29;20035;-71
2021/11/08 11:07:25;;;;;;;14.77;4.95;;;;;;;;;;4920559;29;20510;-72
2021/11/08 11:09:56;;;;;;;12.52;4.97;;;;;;;;;;4918057;29;20032;-73
2021/11/08 11:12:25;;;;;;;15.70;4.85;;;;;;;;;;4923710;29;20035;-73
2021/11/08 11:14:59;;;;;;;14.00;4.88;;;;;;;;;;4922546;29;20100;-72
2021/11/08 11:17:29;;;;;;;10.05;4.80;;;;;;;;;;4919178;29;20032;-71
2021/11/08 11:20:22;;;;;;;13.70;5.15;;;;;;;;;;4922241;29;20516;-73
2021/11/08 11:23:00;;;;;;;14.48;5.53;;;;;;;;;;4919751;29;20084;-72
2021/11/08 11:25:28;;;;;;;12.52;4.95;;;;;;;;;;4915435;29;20035;-72
2021/11/08 11:27:56;;;;;;;14.82;5.03;;;;;;;;;;4921254;29;20040;-75
2021/11/08 11:30:23;;;;;;;21.35;5.82;;;;;;;;;;4919527;29;20129;-72
2021/11/08 11:32:56;;;;;;;13.10;6.20;;;;;;;;;;4920182;29;20023;-72
2021/11/08 11:35:22;;;;;;;15.02;7.32;;;;;;;;;;4920459;29;20028;-70
2021/11/08 11:37:56;;;;;;;15.35;7.55;;;;;;;;;;4923186;29;20031;-72
2021/11/08 11:40:23;;;;;;;22.60;10.13;;;;;;;;;;4916031;29;20619;-71
2021/11/08 11:43:01;;;;;;;26.38;10.38;;;;;;;;;;4919120;29;20034;-72
2021/11/08 11:45:29;;;;;;;18.63;8.38;;;;;;;;;;4922873;29;20784;-72
2021/11/08 11:48:05;;;;;;;14.57;7.65;;;;;;;;;;4916917;29;20047;-71
2021/11/08 11:50:34;;;;;;;15.80;6.63;;;;;;;;;;4922708;29;20047;-72
2021/11/08 11:53:01;;;;;;;16.95;5.32;;;;;;;;;;4917209;29;20032;-71
2021/11/08 11:55:28;;;;;;;12.02;5.07;;;;;;;;;;4916329;29;20492;-71
2021/11/08 11:57:56;;;;;;;11.10;4.75;;;;;;;;;;4920063;29;20023;-71
2021/11/08 12:00:24;;;;;;;15.45;4.18;;;;;;;;;;4922725;29;20655;-71
2021/11/08 12:02:51;;;;;;;11.80;5.15;;;;;;;;;;4920081;29;20028;-72
2021/11/08 12:05:17;;;;;;;7.70;3.35;;;;;;;;;;4919101;29;20024;-71
2021/11/08 12:07:44;;;;;;;7.35;3.00;;;;;;;;;;4922167;29;20032;-71
2021/11/08 12:10:10;;;;;;;9.63;3.58;;;;;;;;;;4921020;29;20030;-71
2021/11/08 12:12:37;;;;;;;7.95;3.42;;;;;;;;;;4916299;29;20091;-70
2021/11/08 12:15:09;;;;;;;9.63;4.07;;;;;;;;;;4919717;29;20024;-71
2021/11/08 12:17:45;;;;;;;9.07;3.67;;;;;;;;;;4917135;29;20043;-71
2021/11/08 12:20:13;;;;;;;8.32;4.28;;;;;;;;;;4915721;29;20052;-71
2021/11/08 12:22:39;;;;;;;10.60;3.80;;;;;;;;;;4918492;29;20035;-72
2021/11/08 12:25:07;;;;;;;10.07;3.88;;;;;;;;;;4921036;29;20028;-73
2021/11/08 12:27:34;;;;;;;9.23;3.28;;;;;;;;;;4913223;29;20055;-72
2021/11/08 12:30:00;;;;;;;11.27;3.75;;;;;;;;;;4916614;29;20075;-72
2021/11/08 12:32:28;;;;;;;9.80;3.97;;;;;;;;;;4917158;29;20039;-75
2021/11/08 12:34:55;;;;;;;9.35;3.85;;;;;;;;;;4921311;29;20118;-74
2021/11/08 12:37:33;;;;;;;7.30;3.65;;;;;;;;;;4918994;29;20685;-71
2021/11/08 12:40:00;;;;;;;12.18;4.75;;;;;;;;;;4911139;29;20024;-71
2021/11/08 12:42:36;;;;;;;11.80;4.63;;;;;;;;;;4919771;29;20089;-71
2021/11/08 12:45:08;;;;;;;13.73;5.18;;;;;;;;;;4915765;29;20112;-71
2021/11/08 12:47:34;;;;;;;16.77;5.45;;;;;;;;;;4919399;29;20063;-71
2021/11/08 12:50:01;;;;;;;19.17;6.65;;;;;;;;;;4914621;29;20032;-71
2021/11/08 12:52:31;;;;;;;22.23;7.55;;;;;;;;;;4914563;29;20079;-71
2021/11/08 12:55:09;;;;;;;24.20;8.80;;;;;;;;;;4918252;29;20047;-71
2021/11/08 12:57:36;;;;;;;20.52;8.07;;;;;;;;;;4916221;29;20070;-72
2021/11/08 13:00:17;;;;;;;25.45;8.60;;;;;;;;;;4920687;29;20027;-71
2021/11/08 13:02:53;;;;;;;27.95;11.40;;;;;;;;;;4917590;29;20028;-71
2021/11/08 13:05:27;;;;;;;33.83;12.10;;;;;;;;;;4919011;29;20615;-71
2021/11/08 13:07:55;;;;;;;27.42;10.57;;;;;;;;;;4915889;29;20038;-72
2021/11/08 13:10:25;;;;;;;37.33;14.50;;;;;;;;;;4916558;29;20103;-71
2021/11/08 13:12:52;;;;;;;38.92;16.63;;;;;;;;;;4912295;29;20123;-71
2021/11/08 13:15:20;;;;;;;41.33;16.25;;;;;;;;;;4916147;29;20064;-71
2021/11/08 13:17:47;;;;;;;29.90;11.88;;;;;;;;;;4915734;29;20027;-73
2021/11/08 13:20:13;;;;;;;21.05;7.50;;;;;;;;;;4917890;29;20567;-71
2021/11/08 13:22:42;;;;;;;13.55;5.20;;;;;;;;;;4932521;29;20055;-75
2021/11/08 13:25:11;;;;;;;24.98;4.97;;;;;;;;;;4920865;29;20050;-75
2021/11/08 13:27:38;;;;;;;8.18;3.78;;;;;;;;;;4921477;29;20035;-74
2021/11/08 13:30:08;;;;;;;8.10;2.53;;;;;;;;;;4922478;29;20102;-76
2021/11/08 13:32:34;;;;;;;22.15;3.45;;;;;;;;;;4922454;29;20023;-74
2021/11/08 13:35:10;;;;;;;8.38;2.55;;;;;;;;;;4922958;29;20106;-74
2021/11/08 13:37:40;;;;;;;8.50;2.92;;;;;;;;;;4922645;29;20107;-75
2021/11/08 13:40:22;;;;;;;6.82;2.80;;;;;;;;;;4921686;29;20353;-71
2021/11/08 13:42:52;;;;;;;3.35;2.47;;;;;;;;;;4923960;29;20016;-71
2021/11/08 13:45:19;;;;;;;4.90;2.10;;;;;;;;;;4923964;29;20027;-72
2021/11/08 13:47:46;;;;;;;5.50;2.42;;;;;;;;;;4921902;29;20126;-72
2021/11/08 13:50:20;;;;;;;4.85;2.03;;;;;;;;;;4924503;29;20059;-71
2021/11/08 13:52:48;;;;;;;4.30;1.88;;;;;;;;;;4925440;29;20169;-71
2021/11/08 13:55:15;;;;;;;3.38;1.90;;;;;;;;;;4918009;29;20023;-72
2021/11/08 13:57:44;;;;;;;2.90;1.70;;;;;;;;;;4915005;29;20579;-72
2021/11/08 14:00:20;;;;;;;5.13;1.75;;;;;;;;;;4915405;29;20421;-72
2021/11/08 14:02:46;;;;;;;4.63;2.25;;;;;;;;;;4916263;29;20027;-71
2021/11/08 14:05:13;;;;;;;4.25;1.90;;;;;;;;;;4918277;29;20136;-71
2021/11/08 14:07:39;;;;;;;3.60;1.98;;;;;;;;;;4915696;29;20111;-72
2021/11/08 14:10:13;;;;;;;8.20;3.28;;;;;;;;;;4915817;29;20000;-73
2021/11/08 14:12:40;;;;;;;7.97;2.78;;;;;;;;;;4910486;29;20028;-71
2021/11/08 14:15:08;;;;;;;7.70;3.38;;;;;;;;;;4915305;29;20031;-72
2021/11/08 14:17:35;;;;;;;8.98;3.50;;;;;;;;;;4913231;29;20034;-72
2021/11/08 14:20:06;;;;;;;9.77;3.40;;;;;;;;;;4917368;29;20237;-71
2021/11/08 14:22:33;;;;;;;4.68;2.58;;;;;;;;;;4908885;29;20048;-71
2021/11/08 14:25:00;;;;;;;7.32;3.40;;;;;;;;;;4916954;29;20518;-71
2021/11/08 14:27:28;;;;;;;8.45;4.53;;;;;;;;;;4915397;29;20044;-71
2021/11/08 14:29:54;;;;;;;11.88;4.68;;;;;;;;;;4914001;29;20048;-71
2021/11/08 14:32:23;;;;;;;13.38;4.85;;;;;;;;;;4915743;29;20042;-72
2021/11/08 14:34:56;;;;;;;11.63;4.60;;;;;;;;;;4907609;29;20698;-71
2021/11/08 14:37:27;;;;;;;15.48;4.72;;;;;;;;;;4914736;29;20035;-72
2021/11/08 14:39:54;;;;;;;15.57;5.83;;;;;;;;;;4921742;29;20029;-71
2021/11/08 14:42:22;;;;;;;16.00;5.88;;;;;;;;;;4916387;29;20028;-71
2021/11/08 14:44:49;;;;;;;15.55;7.10;;;;;;;;;;4917196;29;20059;-74
2021/11/08 14:47:16;;;;;;;20.83;8.00;;;;;;;;;;4916120;29;20500;-72
2021/11/08 14:49:52;;;;;;;21.42;8.68;;;;;;;;;;4923098;29;20028;-72
2021/11/08 14:52:18;;;;;;;28.52;10.77;;;;;;;;;;4914040;29;20028;-71
2021/11/08 14:54:51;;;;;;;27.73;9.18;;;;;;;;;;4917669;29;20604;-71
2021/11/08 14:57:17;;;;;;;22.80;9.40;;;;;;;;;;4918828;29;20015;-71
2021/11/08 14:59:43;;;;;;;25.45;9.55;;;;;;;;;;4916678;29;20057;-71
2021/11/08 15:02:09;;;;;;;15.23;7.32;;;;;;;;;;4919377;29;20032;-71
2021/11/08 15:04:43;;;;;;;14.00;5.93;;;;;;;;;;4920587;29;20028;-72
2021/11/08 15:07:09;;;;;;;16.33;6.03;;;;;;;;;;4920153;29;20086;-71
2021/11/08 15:09:50;;;;;;;5.97;4.45;;;;;;;;;;4919816;29;20078;-71
2021/11/08 15:12:21;;;;;;;9.98;4.32;;;;;;;;;;4914736;29;20087;-71
2021/11/08 15:14:49;;;;;;;7.82;4.18;;;;;;;;;;4916008;29;20127;-71
2021/11/08 15:17:26;;;;;;;6.72;4.07;;;;;;;;;;4920067;29;20085;-71
2021/11/08 15:19:52;;;;;;;9.73;4.15;;;;;;;;;;4912907;29;20032;-71
2021/11/08 15:22:28;;;;;;;7.57;3.50;;;;;;;;;;4920773;29;20440;-73
2021/11/08 15:24:54;;;;;;;8.75;3.15;;;;;;;;;;4915073;29;20105;-72
2021/11/08 15:27:30;;;;;;;9.65;3.33;;;;;;;;;;4917906;29;20043;-72
2021/11/08 15:30:04;;;;;;;5.72;3.17;;;;;;;;;;4918632;29;20249;-72
2021/11/08 15:32:30;;;;;;;6.55;3.40;;;;;;;;;;4912278;29;20127;-72
2021/11/08 15:35:06;;;;;;;12.07;3.47;;;;;;;;;;4919049;29;20035;-72
2021/11/08 15:37:33;;;;;;;6.00;3.78;;;;;;;;;;4917076;29;20111;-71
2021/11/08 15:40:00;;;;;;;9.77;3.65;;;;;;;;;;4916253;29;20095;-72
2021/11/08 15:42:27;;;;;;;6.07;4.35;;;;;;;;;;4918372;29;20040;-71
2021/11/08 15:44:53;;;;;;;7.47;4.47;;;;;;;;;;4921643;29;20027;-71
2021/11/08 15:47:21;;;;;;;11.07;4.88;;;;;;;;;;4923516;29;20028;-71
2021/11/08 15:49:47;;;;;;;13.70;5.90;;;;;;;;;;4925398;29;20390;-72
2021/11/08 15:52:13;;;;;;;11.32;5.63;;;;;;;;;;4925050;29;20032;-73
2021/11/08 15:54:39;;;;;;;13.32;6.95;;;;;;;;;;4926491;29;20655;-72
2021/11/08 15:57:06;;;;;;;17.02;7.15;;;;;;;;;;4926383;29;20103;-72
2021/11/08 15:59:32;;;;;;;11.00;5.13;;;;;;;;;;4926776;29;20107;-71
2021/11/08 16:01:58;;;;;;;10.18;5.43;;;;;;;;;;4925848;29;20035;-71
2021/11/08 16:04:24;;;;;;;15.05;5.95;;;;;;;;;;4926270;29;20047;-72
2021/11/08 16:06:53;;;;;;;8.38;5.28;;;;;;;;;;4924646;29;20500;-70
2021/11/08 16:09:19;;;;;;;13.50;6.20;;;;;;;;;;4924654;29;20429;-71
2021/11/08 16:11:46;;;;;;;11.50;6.10;;;;;;;;;;4922547;29;20031;-72
2021/11/08 16:14:13;;;;;;;13.18;6.38;;;;;;;;;;4921709;29;20035;-71
2021/11/08 16:16:39;;;;;;;12.75;5.75;;;;;;;;;;4921474;29;20516;-70
2021/11/08 16:19:05;;;;;;;13.35;6.03;;;;;;;;;;4923527;29;20472;-71
2021/11/08 16:21:32;;;;;;;11.10;5.72;;;;;;;;;;4926073;29;20551;-70
2021/11/08 16:24:00;;;;;;;17.90;5.72;;;;;;;;;;4925600;29;20115;-70
2021/11/08 16:26:26;;;;;;;13.23;5.00;;;;;;;;;;4926967;29;20506;-70